Time;durP1;ratioP1;P1;durP2;ratioP2;P2;SDS_P1;SDS_P2;PMS_P1;PMS_P2;Temp;Humidity;BMP_temperature;BMP_pressure;BME280_temperature;BME280_humidity;BME280_pressure;Samples;Min_cycle;Max_cycle;Signal;HPM_P1;HPM_P2
2022/05/03 00:00:36;;;;;;;4.30;3.42;;;;;;;6.38;82.41;101853.34;4998226;28;20039;-77
2022/05/03 00:03:33;;;;;;;4.97;3.50;;;;;;;6.81;83.38;101934.50;5005734;28;20204;-78
2022/05/03 00:06:24;;;;;;;9.10;3.28;;;;;;;6.74;84.98;101933.22;5008205;28;20045;-77
2022/05/03 00:09:08;;;;;;;5.07;3.90;;;;;;;6.55;85.39;101907.31;5015219;28;20057;-77
2022/05/03 00:11:41;;;;;;;7.25;3.97;;;;;;;6.50;85.54;101904.97;5010059;28;20536;-76
2022/05/03 00:14:17;;;;;;;5.28;3.92;;;;;;;6.64;85.18;101926.84;5004258;28;20042;-77
2022/05/03 00:16:45;;;;;;;5.50;4.22;;;;;;;6.63;85.69;101925.19;5009294;28;20528;-76
2022/05/03 00:19:10;;;;;;;7.20;4.15;;;;;;;6.45;86.17;101901.81;5013457;28;20490;-77
2022/05/03 00:21:38;;;;;;;5.43;4.20;;;;;;;6.54;87.17;101921.38;4990752;28;20042;-76
2022/05/03 00:24:05;;;;;;;10.25;4.35;;;;;;;6.47;87.49;101920.91;5009825;28;20469;-76
2022/05/03 00:26:32;;;;;;;5.68;4.25;;;;;;;6.42;87.90;101922.13;5007131;28;20026;-77
2022/05/03 00:28:58;;;;;;;5.82;3.72;;;;;;;6.35;88.25;101921.69;5008953;28;20166;-76
2022/05/03 00:31:25;;;;;;;7.47;4.18;;;;;;;6.20;88.46;101915.59;5010607;28;20043;-77
2022/05/03 00:33:53;;;;;;;7.78;4.13;;;;;;;6.13;89.34;101925.63;5008863;28;20087;-77
2022/05/03 00:36:18;;;;;;;9.65;4.95;;;;;;;6.04;89.38;101920.97;5000747;28;20253;-76
2022/05/03 00:38:44;;;;;;;7.57;4.07;;;;;;;5.95;89.75;101913.69;5005990;28;20033;-76
2022/05/03 00:41:15;;;;;;;6.00;4.10;;;;;;;5.84;90.87;101910.84;5009972;28;20072;-77
2022/05/03 00:43:58;;;;;;;7.35;4.88;;;;;;;5.69;91.68;101896.88;5005439;28;20249;-75
2022/05/03 00:46:28;;;;;;;5.97;4.63;;;;;;;5.56;92.42;101896.78;5007493;28;20510;-75
2022/05/03 00:49:21;;;;;;;7.07;4.82;;;;;;;5.60;92.66;101915.78;5006479;28;20284;-77
2022/05/03 00:51:52;;;;;;;10.10;5.32;;;;;;;5.43;93.27;101901.06;5003313;28;20403;-77
2022/05/03 00:54:56;;;;;;;7.90;5.28;;;;;;;5.36;93.87;101904.03;5004980;28;20559;-77
2022/05/03 00:57:42;;;;;;;7.22;4.90;;;;;;;5.28;94.00;101903.63;5001710;28;20140;-77
2022/05/03 01:00:14;;;;;;;6.47;4.40;;;;;;;5.21;94.57;101896.25;5005479;28;20036;-77
2022/05/03 01:03:04;;;;;;;7.38;4.32;;;;;;;5.28;94.66;101915.88;5010758;28;20052;-77
2022/05/03 01:06:02;;;;;;;8.02;5.07;;;;;;;5.40;94.34;101919.53;5005829;28;20030;-76
2022/05/03 01:08:42;;;;;;;8.05;4.40;;;;;;;5.50;93.37;101915.47;5007267;28;20496;-77
2022/05/03 01:11:26;;;;;;;7.75;4.25;;;;;;;5.58;91.39;101918.47;5006907;28;20034;-77
2022/05/03 01:14:24;;;;;;;6.13;3.97;;;;;;;5.67;89.95;101923.16;5009843;28;20029;-77
2022/05/03 01:17:04;;;;;;;5.13;3.80;;;;;;;5.56;88.80;101888.91;5004887;28;20068;-77
2022/05/03 01:19:50;;;;;;;8.02;5.05;;;;;;;5.74;89.53;101910.53;5008289;28;20125;-77
2022/05/03 01:22:28;;;;;;;7.70;4.78;;;;;;;5.74;89.77;101911.38;5012136;28;20053;-78
2022/05/03 01:25:25;;;;;;;8.30;4.80;;;;;;;5.77;89.69;101908.59;5010889;28;20105;-76
2022/05/03 01:28:25;;;;;;;7.25;4.47;;;;;;;5.78;90.09;101909.41;5002575;28;20116;-77
2022/05/03 01:30:52;;;;;;;7.33;4.83;;;;;;;5.74;90.03;101897.44;5008404;28;20321;-77
2022/05/03 01:33:29;;;;;;;7.13;5.05;;;;;;;5.69;90.75;101908.19;5011566;28;20145;-77
2022/05/03 01:35:58;;;;;;;6.57;4.63;;;;;;;5.67;90.64;101915.31;5004573;28;20036;-75
2022/05/03 01:38:51;;;;;;;5.72;4.55;;;;;;;5.64;91.52;101906.78;5009182;28;20068;-77
2022/05/03 01:41:29;;;;;;;7.32;4.65;;;;;;;5.52;91.70;101909.19;5018557;28;20037;-77
2022/05/03 01:44:28;;;;;;;7.40;5.13;;;;;;;5.39;92.78;101907.41;5023951;28;20040;-77
2022/05/03 01:47:18;;;;;;;6.70;5.55;;;;;;;5.25;93.09;101893.34;5014878;28;20045;-77
2022/05/03 01:53:03;;;;;;;6.93;4.90;;;;;;;5.06;93.41;101884.88;5002506;28;20083;-77
2022/05/03 01:55:50;;;;;;;7.10;5.47;;;;;;;5.18;94.36;101907.72;5015033;28;20481;-77
2022/05/03 01:58:27;;;;;;;7.72;5.38;;;;;;;5.17;93.79;101905.19;5001986;28;20030;-78
2022/05/03 02:01:03;;;;;;;6.57;5.07;;;;;;;5.22;94.06;101905.78;5021159;28;20087;-77
2022/05/03 02:03:42;;;;;;;8.38;5.65;;;;;;;5.20;93.76;101908.47;5008204;28;20133;-77
2022/05/03 02:06:15;;;;;;;8.52;6.40;;;;;;;5.20;94.98;101910.25;5019485;28;20021;-77
2022/05/03 02:09:00;;;;;;;9.90;5.97;;;;;;;5.25;95.17;101914.28;4999891;28;20112;-77
2022/05/03 02:11:34;;;;;;;8.30;5.85;;;;;;;5.34;95.76;101918.16;5008248;28;20508;-77
2022/05/03 02:16:54;;;;;;;8.27;5.40;;;;;;;5.58;94.75;101913.25;5005695;28;20188;-77
2022/05/03 02:19:22;;;;;;;7.28;5.57;;;;;;;5.71;94.38;101903.72;5010320;28;20476;-78
2022/05/03 02:22:06;;;;;;;7.72;5.35;;;;;;;5.87;93.63;101902.78;5010707;28;20052;-76
2022/05/03 02:25:07;;;;;;;10.23;5.00;;;;;;;5.98;93.55;101895.13;5008276;28;20029;-78
2022/05/03 02:27:35;;;;;;;6.53;4.65;;;;;;;6.12;93.30;101894.31;5001275;28;20037;-77
2022/05/03 02:30:02;;;;;;;7.10;5.30;;;;;;;6.25;92.73;101894.34;5005945;28;20452;-77
2022/05/03 02:32:41;;;;;;;6.95;5.40;;;;;;;6.36;91.76;101894.53;5003488;28;20038;-77
2022/05/03 02:35:13;;;;;;;8.88;5.03;;;;;;;6.31;91.71;101873.00;5009483;28;20265;-77
2022/05/03 02:37:47;;;;;;;7.88;5.30;;;;;;;6.40;93.21;101882.88;5009264;28;20030;-77
2022/05/03 02:40:18;;;;;;;8.50;5.82;;;;;;;6.38;93.58;101869.06;4999711;28;20356;-77
2022/05/03 02:42:45;;;;;;;9.38;5.80;;;;;;;6.49;94.30;101890.19;4998667;28;20037;-78
2022/05/03 02:45:12;;;;;;;7.22;5.82;;;;;;;6.48;93.58;101896.38;5009867;28;20053;-77
2022/05/03 02:48:14;;;;;;;8.75;5.53;;;;;;;6.50;94.00;101894.50;4997452;28;20463;-78
2022/05/03 02:50:48;;;;;;;6.90;5.55;;;;;;;6.48;93.90;101891.13;4998093;28;20026;-76
2022/05/03 02:53:20;;;;;;;7.35;5.22;;;;;;;6.51;94.17;101890.94;5011441;28;20048;-77
2022/05/03 02:56:01;;;;;;;7.18;5.15;;;;;;;6.51;94.52;101885.69;5016269;28;20026;-75
2022/05/03 02:58:51;;;;;;;6.93;5.30;;;;;;;6.54;93.97;101890.72;5010121;28;20029;-75
2022/05/03 03:01:50;;;;;;;6.75;5.30;;;;;;;6.44;94.05;101868.66;5007044;28;20501;-75
2022/05/03 03:04:52;;;;;;;7.90;5.50;;;;;;;6.61;94.34;101891.19;5006670;28;20033;-75
2022/05/03 03:07:19;;;;;;;6.90;5.72;;;;;;;6.47;94.96;101886.00;5009481;28;20043;-75
2022/05/03 03:09:55;;;;;;;6.97;5.60;;;;;;;6.50;95.90;101888.41;5010951;28;20156;-75
2022/05/03 03:12:27;;;;;;;8.38;6.13;;;;;;;6.39;96.69;101887.31;5003739;28;20033;-76
2022/05/03 03:15:08;;;;;;;10.07;6.00;;;;;;;6.27;97.17;101872.38;5009099;28;20022;-76
2022/05/03 03:17:54;;;;;;;8.57;6.07;;;;;;;6.41;98.69;101884.59;5007830;28;20065;-76
2022/05/03 03:20:25;;;;;;;7.72;5.72;;;;;;;6.53;98.55;101888.19;5003803;28;20033;-76
2022/05/03 03:22:51;;;;;;;7.85;5.95;;;;;;;6.51;97.69;101877.81;5009714;28;20030;-76
2022/05/03 03:25:19;;;;;;;7.45;5.88;;;;;;;6.72;97.00;101887.88;5004822;28;20655;-76
2022/05/03 03:27:47;;;;;;;10.77;6.88;;;;;;;6.79;96.17;101884.75;5009349;28;20825;-77
2022/05/03 03:30:14;;;;;;;9.13;6.38;;;;;;;6.87;94.91;101893.91;5011435;28;20030;-76
2022/05/03 03:32:44;;;;;;;8.38;5.47;;;;;;;6.79;93.96;101873.41;5009158;28;20029;-76
2022/05/03 03:35:12;;;;;;;8.55;6.53;;;;;;;7.01;92.85;101888.56;5012345;28;20038;-76
2022/05/03 03:37:51;;;;;;;8.40;5.53;;;;;;;7.01;91.43;101883.31;5009817;28;20026;-76
2022/05/03 03:40:18;;;;;;;9.23;6.22;;;;;;;7.09;91.11;101888.91;5006452;28;20045;-76
2022/05/03 03:42:44;;;;;;;9.45;6.88;;;;;;;7.15;91.46;101883.25;5019841;28;20034;-76
2022/05/03 03:45:12;;;;;;;9.73;6.88;;;;;;;7.21;91.77;101892.53;5006060;28;20070;-76
2022/05/03 03:47:44;;;;;;;8.57;6.32;;;;;;;7.24;91.75;101888.84;5012564;28;20378;-76
2022/05/03 03:50:11;;;;;;;11.23;6.75;;;;;;;7.29;92.30;101886.75;5013471;28;20112;-76
2022/05/03 03:52:39;;;;;;;11.05;7.40;;;;;;;7.31;92.38;101883.06;5006751;28;20404;-76
2022/05/03 03:55:05;;;;;;;9.70;6.65;;;;;;;7.35;92.97;101883.72;5002157;28;20449;-76
2022/05/03 03:57:31;;;;;;;8.93;6.85;;;;;;;7.29;93.28;101882.31;5016571;28;20292;-76
2022/05/03 03:59:58;;;;;;;10.18;7.07;;;;;;;7.34;92.64;101880.25;5017576;28;20387;-76
2022/05/03 04:02:26;;;;;;;9.85;6.93;;;;;;;7.35;92.83;101870.59;5030395;28;20033;-77
2022/05/03 04:04:53;;;;;;;10.32;7.18;;;;;;;7.39;92.74;101869.44;4986839;28;20628;-77
2022/05/03 04:07:19;;;;;;;11.90;7.80;;;;;;;7.49;92.99;101877.50;5013609;28;20036;-76
2022/05/03 04:09:44;;;;;;;10.57;7.05;;;;;;;7.45;92.73;101870.78;5012657;28;20041;-76
2022/05/03 04:12:10;;;;;;;12.02;7.05;;;;;;;7.57;91.31;101885.72;5007141;28;20473;-76
2022/05/03 04:14:35;;;;;;;12.02;7.97;;;;;;;7.64;91.45;101879.09;5006139;28;20734;-77
2022/05/03 04:17:01;;;;;;;11.05;7.95;;;;;;;7.69;91.70;101879.63;5015149;28;20026;-76
2022/05/03 04:19:26;;;;;;;10.38;7.20;;;;;;;7.62;91.62;101868.72;5005596;28;20034;-76
2022/05/03 04:21:52;;;;;;;11.05;7.50;;;;;;;7.74;91.58;101882.78;5019993;28;20017;-76
2022/05/03 04:24:18;;;;;;;11.32;8.55;;;;;;;7.75;91.31;101880.97;5015399;28;20520;-77
2022/05/03 04:26:43;;;;;;;10.77;7.28;;;;;;;7.82;91.84;101877.84;5021984;28;20371;-77
2022/05/03 04:29:09;;;;;;;11.52;8.32;;;;;;;7.86;92.01;101877.59;5014934;28;20140;-77
2022/05/03 04:31:35;;;;;;;14.52;8.43;;;;;;;7.92;91.23;101879.81;5015971;28;20025;-76
2022/05/03 04:34:03;;;;;;;13.20;9.15;;;;;;;7.80;91.74;101865.75;5003760;28;20410;-76
2022/05/03 04:36:30;;;;;;;12.88;7.80;;;;;;;7.70;91.34;101834.00;5006924;28;20030;-75
2022/05/03 04:38:56;;;;;;;13.40;8.27;;;;;;;8.02;92.30;101886.94;5012024;28;20047;-78
2022/05/03 04:41:25;;;;;;;12.88;9.05;;;;;;;7.93;91.81;101868.38;5004404;28;20334;-77
2022/05/03 04:43:51;;;;;;;13.45;8.60;;;;;;;8.06;90.94;101882.31;5012880;28;20040;-78
2022/05/03 04:46:17;;;;;;;16.50;9.13;;;;;;;8.09;90.10;101887.34;5014248;28;20452;-76
2022/05/03 04:48:43;;;;;;;13.65;7.85;;;;;;;8.15;89.44;101894.81;5004150;28;20085;-76
2022/05/03 04:51:23;;;;;;;12.98;8.70;;;;;;;8.12;89.25;101887.16;5004603;28;20057;-77
2022/05/03 04:53:49;;;;;;;12.43;8.32;;;;;;;8.19;89.67;101890.19;5005321;28;20243;-78
2022/05/03 04:56:25;;;;;;;13.68;8.63;;;;;;;8.26;90.18;101898.47;5003724;28;20064;-76
2022/05/03 04:58:55;;;;;;;12.40;7.70;;;;;;;8.31;90.83;101896.34;5016963;28;20041;-78
2022/05/03 05:01:21;;;;;;;16.77;9.95;;;;;;;8.20;90.77;101879.53;5013069;28;20144;-76
2022/05/03 05:03:47;;;;;;;13.55;7.90;;;;;;;8.37;91.68;101906.44;5007545;28;20045;-76
2022/05/03 05:06:13;;;;;;;16.98;9.82;;;;;;;8.40;92.72;101895.69;5018806;28;20022;-75
2022/05/03 05:08:40;;;;;;;17.15;10.63;;;;;;;8.45;93.18;101901.50;5012735;28;20025;-75
2022/05/03 05:11:05;;;;;;;13.82;9.05;;;;;;;8.43;93.19;101909.50;5017070;28;20493;-77
2022/05/03 05:13:32;;;;;;;18.75;10.32;;;;;;;8.44;92.72;101910.34;5008888;28;20048;-75
2022/05/03 05:15:57;;;;;;;12.48;7.95;;;;;;;8.43;92.41;101912.13;5016717;28;20033;-77
2022/05/03 05:18:24;;;;;;;14.98;10.23;;;;;;;8.47;92.08;101909.28;5001046;28;20329;-77
2022/05/03 05:20:50;;;;;;;15.88;9.48;;;;;;;8.48;92.29;101914.44;4998579;28;20041;-76
2022/05/03 05:23:15;;;;;;;16.13;10.02;;;;;;;8.49;91.56;101920.53;5013086;28;20029;-76
2022/05/03 05:25:41;;;;;;;23.77;10.63;;;;;;;8.39;92.25;101900.13;5006735;28;20041;-77
2022/05/03 05:28:06;;;;;;;15.02;10.23;;;;;;;8.51;92.51;101924.72;4997332;28;20133;-75
2022/05/03 05:30:32;;;;;;;12.00;9.50;;;;;;;8.34;91.18;101904.00;5004026;28;20038;-75
2022/05/03 05:32:57;;;;;;;14.95;9.00;;;;;;;8.52;90.43;101936.94;5013627;28;20029;-74
2022/05/03 05:35:23;;;;;;;16.92;10.10;;;;;;;8.54;90.80;101919.25;5009741;28;20030;-74
2022/05/03 05:37:48;;;;;;;16.15;10.73;;;;;;;8.67;92.44;101934.13;4996757;28;20480;-74
2022/05/03 05:40:13;;;;;;;15.52;10.00;;;;;;;8.59;93.50;101917.13;5002896;28;20139;-74
2022/05/03 05:42:39;;;;;;;15.27;9.35;;;;;;;8.73;93.57;101931.06;5004564;28;20042;-74
2022/05/03 05:45:05;;;;;;;16.38;8.43;;;;;;;8.83;94.97;101940.00;4994433;28;20061;-73
2022/05/03 05:47:30;;;;;;;19.13;5.55;;;;;;;8.88;97.35;101937.00;5006530;28;20312;-73
2022/05/03 05:49:56;;;;;;;12.25;5.03;;;;;;;8.91;99.28;101956.06;5008535;28;20187;-73
2022/05/03 05:55:06;;;;;;;17.67;3.63;;;;;;;8.78;100.00;101957.91;5010727;28;20076;-74
2022/05/03 05:57:31;;;;;;;9.98;3.60;;;;;;;8.75;100.00;101955.50;5015582;28;20069;-74
2022/05/03 05:59:57;;;;;;;11.20;3.20;;;;;;;8.68;100.00;101941.94;4991029;28;20380;-74
2022/05/03 06:02:22;;;;;;;11.70;3.63;;;;;;;8.71;100.00;101957.53;5011061;28;20042;-75
2022/05/03 06:04:47;;;;;;;9.32;3.78;;;;;;;8.70;100.00;101952.34;5012088;28;20040;-75
2022/05/03 06:07:13;;;;;;;6.82;3.78;;;;;;;8.60;100.00;101953.03;5018725;28;20139;-75
2022/05/03 06:09:38;;;;;;;11.70;3.50;;;;;;;8.56;100.00;101959.47;5015461;28;20033;-75
2022/05/03 06:12:04;;;;;;;8.07;2.90;;;;;;;8.44;100.00;101949.78;5013388;28;20110;-75
2022/05/03 06:14:30;;;;;;;12.88;3.30;;;;;;;8.56;100.00;101964.72;4996453;28;20446;-75
2022/05/03 06:16:57;;;;;;;9.60;3.15;;;;;;;8.48;100.00;101953.06;5013380;28;20391;-75
2022/05/03 06:19:24;;;;;;;5.53;2.88;;;;;;;8.60;100.00;101968.81;4990829;28;20029;-74
2022/05/03 06:21:50;;;;;;;8.05;2.92;;;;;;;8.64;100.00;101972.91;4994430;28;20037;-74
2022/05/03 06:24:16;;;;;;;11.23;2.90;;;;;;;8.65;100.00;101977.22;5004749;28;20029;-74
2022/05/03 06:26:42;;;;;;;8.52;3.30;;;;;;;8.71;100.00;101978.59;5002648;28;20025;-74
2022/05/03 06:29:09;;;;;;;7.68;2.88;;;;;;;8.75;100.00;101979.19;5007389;28;20025;-74
2022/05/03 06:31:44;;;;;;;7.75;3.20;;;;;;;8.85;100.00;101981.03;5015197;28;20037;-74
2022/05/03 06:34:10;;;;;;;17.67;3.17;;;;;;;8.89;100.00;101975.56;5010773;28;20547;-73
2022/05/03 06:36:36;;;;;;;6.53;2.78;;;;;;;8.89;100.00;101972.94;5010984;28;20044;-75
2022/05/03 06:39:05;;;;;;;7.30;3.08;;;;;;;9.01;100.00;101985.19;4996984;28;20136;-75
2022/05/03 06:41:32;;;;;;;13.32;3.90;;;;;;;9.06;100.00;101983.91;5006106;28;20124;-75
2022/05/03 06:43:58;;;;;;;9.55;3.13;;;;;;;9.02;100.00;101965.81;5013430;28;20042;-73
2022/05/03 06:46:27;;;;;;;17.35;3.90;;;;;;;9.22;100.00;101982.78;5031068;28;20052;-75
2022/05/03 06:48:52;;;;;;;12.75;3.80;;;;;;;9.27;100.00;101981.47;5008930;28;20033;-73
2022/05/03 06:51:18;;;;;;;9.88;3.22;;;;;;;9.40;100.00;101988.47;5012154;28;20331;-74
2022/05/03 06:53:44;;;;;;;9.32;3.45;;;;;;;9.52;100.00;101982.31;5004693;28;20366;-75
2022/05/03 06:56:09;;;;;;;16.25;3.78;;;;;;;9.57;99.37;101990.69;5014920;28;20040;-74
2022/05/03 06:58:35;;;;;;;11.98;4.05;;;;;;;9.73;98.75;101993.00;5017035;28;20065;-74
2022/05/03 07:01:12;;;;;;;14.48;4.00;;;;;;;9.72;97.61;102001.88;5011803;28;20030;-74
2022/05/03 07:03:38;;;;;;;17.00;3.97;;;;;;;9.84;97.00;102003.59;4991470;28;20041;-74
2022/05/03 07:06:04;;;;;;;11.80;3.33;;;;;;;9.78;96.31;102004.06;5005549;28;20056;-74
2022/05/03 07:08:30;;;;;;;10.15;2.90;;;;;;;9.83;95.31;102003.72;5014807;28;20542;-74
2022/05/03 07:10:56;;;;;;;9.57;3.22;;;;;;;9.85;94.62;102000.00;5009212;28;20025;-74
2022/05/03 07:13:23;;;;;;;10.77;3.33;;;;;;;10.00;92.83;101999.78;5005031;28;20275;-74
2022/05/03 07:15:56;;;;;;;14.10;3.58;;;;;;;10.16;91.79;102007.34;5002017;28;20091;-74
2022/05/03 07:23:52;;;;;;;12.05;2.80;;;;;;;10.43;87.51;102005.22;5003036;28;20216;-74
2022/05/03 07:26:18;;;;;;;15.20;2.85;;;;;;;10.35;86.00;101990.97;5015954;28;20131;-74
2022/05/03 07:28:43;;;;;;;4.70;2.20;;;;;;;10.52;86.15;102006.31;4987486;28;20036;-74
2022/05/03 07:31:09;;;;;;;10.98;2.03;;;;;;;10.52;84.93;102019.50;4992342;28;20485;-74
2022/05/03 07:33:35;;;;;;;15.60;3.42;;;;;;;10.55;84.79;102015.78;5003253;28;20568;-74
2022/05/03 07:36:00;;;;;;;16.83;3.83;;;;;;;10.50;86.15;102000.31;5009301;28;20037;-75
2022/05/03 07:38:26;;;;;;;10.65;2.63;;;;;;;10.64;84.56;102018.50;5009471;28;20030;-74
2022/05/03 07:40:51;;;;;;;6.28;2.35;;;;;;;10.57;83.58;102001.50;5013695;28;20037;-74
2022/05/03 07:43:17;;;;;;;11.43;2.90;;;;;;;10.75;82.83;102003.63;5016288;28;20549;-74
2022/05/03 07:45:42;;;;;;;16.52;3.05;;;;;;;10.90;82.13;102013.78;4992478;28;20085;-74
2022/05/03 07:48:08;;;;;;;10.82;2.35;;;;;;;11.15;81.80;101995.97;5006045;28;20049;-74
2022/05/03 07:50:33;;;;;;;7.68;2.22;;;;;;;11.37;81.63;102013.53;4989180;28;20031;-74
2022/05/03 07:52:59;;;;;;;12.15;2.70;;;;;;;11.58;80.29;102033.88;5002659;28;20068;-74
2022/05/03 07:55:24;;;;;;;8.80;2.13;;;;;;;11.56;78.79;102033.16;4990794;28;20296;-74
2022/05/03 07:57:49;;;;;;;8.50;1.55;;;;;;;11.41;78.76;102022.03;5009132;28;20135;-74
2022/05/03 08:00:15;;;;;;;11.13;1.98;;;;;;;11.31;78.64;102024.63;5001906;28;20043;-74
2022/05/03 08:02:40;;;;;;;17.33;2.92;;;;;;;11.17;78.26;102023.09;4999806;28;20532;-74
2022/05/03 08:05:07;;;;;;;7.25;1.67;;;;;;;11.34;78.53;102042.84;5006165;28;20030;-74
2022/05/03 08:07:34;;;;;;;9.77;2.10;;;;;;;11.27;78.12;102045.16;4999788;28;20107;-74
2022/05/03 08:10:00;;;;;;;9.10;1.83;;;;;;;11.08;75.72;102037.91;5011440;28;20528;-74
2022/05/03 08:12:26;;;;;;;9.40;1.85;;;;;;;11.20;76.75;102037.88;5001114;28;20032;-74
2022/05/03 08:14:52;;;;;;;9.07;1.70;;;;;;;11.31;75.88;102035.19;5003548;28;20127;-74
2022/05/03 08:17:17;;;;;;;8.57;1.85;;;;;;;11.50;75.13;102051.22;5001696;28;20105;-74
2022/05/03 08:19:42;;;;;;;10.63;2.83;;;;;;;11.55;74.93;102047.34;5009672;28;20033;-74
2022/05/03 08:22:08;;;;;;;8.02;2.08;;;;;;;11.67;73.74;102035.72;5000923;28;20226;-74
2022/05/03 08:24:33;;;;;;;6.03;1.75;;;;;;;11.99;74.01;102050.75;4985109;28;20065;-74
2022/05/03 08:27:00;;;;;;;9.57;1.88;;;;;;;12.03;72.75;102053.00;5011645;28;20291;-74
2022/05/03 08:29:27;;;;;;;9.55;1.65;;;;;;;11.97;73.13;102048.22;5003620;28;20432;-74
2022/05/03 08:31:52;;;;;;;10.55;1.73;;;;;;;12.12;72.51;102052.22;5009823;28;20058;-76
2022/05/03 08:34:18;;;;;;;6.45;1.27;;;;;;;12.47;70.97;102045.69;5008586;28;20553;-77
2022/05/03 08:42:01;;;;;;;9.95;1.88;;;;;;;12.97;70.87;102052.84;5011308;28;20025;-76
2022/05/03 08:42:15;;;;;;;8.38;1.70;;;;;;;12.76;67.42;102056.41;5010789;28;20052;-74
2022/05/03 08:44:40;;;;;;;7.43;1.42;;;;;;;12.82;68.30;102059.50;5014522;28;20233;-77
2022/05/03 08:47:06;;;;;;;10.93;1.73;;;;;;;12.68;67.76;102048.31;4991810;28;20541;-76
2022/05/03 08:50:03;;;;;;;8.57;1.52;;;;;;;12.90;68.31;102071.09;5007631;28;20033;-76
2022/05/03 08:52:33;;;;;;;4.68;1.95;;;;;;;13.34;68.15;102070.78;5008701;28;20037;-77
2022/05/03 08:55:00;;;;;;;7.22;1.60;;;;;;;13.98;64.67;102067.56;5003810;28;20057;-77
2022/05/03 08:57:26;;;;;;;7.20;1.55;;;;;;;14.39;63.82;102073.47;5005503;28;20057;-76
2022/05/03 08:59:52;;;;;;;7.60;2.00;;;;;;;14.69;61.01;102078.69;5007184;28;20061;-76
2022/05/03 09:02:18;;;;;;;6.50;1.88;;;;;;;14.93;63.00;102075.47;5016600;28;20203;-78
2022/05/03 09:04:43;;;;;;;8.07;1.75;;;;;;;15.04;60.22;102085.06;5005799;28;20030;-76
2022/05/03 09:07:23;;;;;;;8.13;1.88;;;;;;;15.39;60.43;102084.28;5009798;28;20037;-76
2022/05/03 09:09:49;;;;;;;13.00;2.38;;;;;;;15.37;60.88;102079.13;5003976;28;20044;-75
2022/05/03 09:12:22;;;;;;;7.28;1.50;;;;;;;15.31;60.19;102073.53;5020481;28;20018;-75
2022/05/03 09:14:48;;;;;;;8.13;1.55;;;;;;;15.37;60.53;102087.09;5005354;28;20042;-75
2022/05/03 09:17:14;;;;;;;5.63;1.25;;;;;;;15.48;59.78;102080.69;5006795;28;20065;-76
2022/05/03 09:19:39;;;;;;;15.73;3.45;;;;;;;15.21;60.11;102084.25;5015162;28;20029;-76
2022/05/03 09:24:58;;;;;;;7.20;1.63;;;;;;;15.23;59.50;102087.63;5011678;28;20052;-76
2022/05/03 09:27:25;;;;;;;7.78;1.73;;;;;;;15.15;59.32;102075.06;5007171;28;20022;-76
2022/05/03 09:30:03;;;;;;;7.25;1.80;;;;;;;15.47;58.84;102088.84;5003925;28;20200;-76
2022/05/03 09:32:35;;;;;;;4.93;1.70;;;;;;;15.74;56.42;102093.28;5005308;28;20028;-76
2022/05/03 09:35:02;;;;;;;5.57;1.67;;;;;;;15.93;55.83;102090.44;5009369;28;20350;-76
2022/05/03 09:37:38;;;;;;;4.78;1.48;;;;;;;16.16;55.14;102093.44;5014459;28;20537;-76
2022/05/03 09:40:05;;;;;;;9.40;2.13;;;;;;;16.30;54.12;102073.38;5005717;28;20124;-76
2022/05/03 09:42:31;;;;;;;4.18;1.42;;;;;;;16.60;53.13;102093.34;5010221;28;20037;-76
2022/05/03 09:45:00;;;;;;;4.10;1.20;;;;;;;16.41;53.31;102096.25;5009350;28;20144;-76
2022/05/03 09:47:27;;;;;;;4.95;1.17;;;;;;;16.64;53.71;102104.53;5008182;28;20132;-75
2022/05/03 09:49:53;;;;;;;4.30;1.60;;;;;;;16.77;53.08;102078.28;5007555;28;20113;-75
2022/05/03 09:52:30;;;;;;;5.43;1.23;;;;;;;17.26;52.52;102094.44;5015720;28;20148;-75
2022/05/03 09:55:03;;;;;;;4.57;1.10;;;;;;;17.70;50.79;102082.63;5001205;28;20037;-75
2022/05/03 09:57:31;;;;;;;5.40;1.30;;;;;;;18.24;50.11;102104.31;5006418;28;20033;-75
2022/05/03 09:59:57;;;;;;;7.85;1.63;;;;;;;18.24;49.75;102103.50;5012877;28;20084;-75
2022/05/03 10:02:25;;;;;;;3.70;1.27;;;;;;;18.11;49.59;102098.66;5003707;28;20038;-75
2022/05/03 10:04:57;;;;;;;3.53;0.90;;;;;;;18.11;49.87;102111.19;5008397;28;20104;-75
2022/05/03 10:07:24;;;;;;;5.35;1.20;;;;;;;18.30;49.18;102117.00;5012656;28;20029;-76
2022/05/03 10:09:50;;;;;;;3.83;1.40;;;;;;;18.15;49.13;102109.84;5008420;28;20261;-76
2022/05/03 10:12:17;;;;;;;7.72;1.13;;;;;;;18.03;50.42;102107.53;5005257;28;20026;-75
2022/05/03 10:14:44;;;;;;;3.00;1.05;;;;;;;17.73;49.90;102092.16;5008440;28;20029;-75
2022/05/03 10:23:19;;;;;;;7.25;1.23;;;;;;;17.74;49.78;102094.66;5007167;28;20056;-75
2022/05/03 10:25:44;;;;;;;4.40;1.20;;;;;;;18.97;48.41;102105.13;5024638;28;20381;-75
2022/05/03 10:28:10;;;;;;;10.48;1.65;;;;;;;19.37;46.70;102110.41;5006561;28;20444;-75
2022/05/03 10:30:38;;;;;;;4.30;1.20;;;;;;;19.45;45.33;102103.16;5006607;28;20054;-77
2022/05/03 10:33:19;;;;;;;6.72;1.10;;;;;;;19.37;46.11;102110.41;4991291;28;20196;-76
2022/05/03 10:35:48;;;;;;;6.45;1.48;;;;;;;19.12;45.48;102099.84;5020907;28;20030;-76
2022/05/03 10:38:14;;;;;;;3.60;1.13;;;;;;;18.54;47.20;102099.25;5013043;28;20036;-76
2022/05/03 10:40:42;;;;;;;3.70;1.30;;;;;;;18.65;48.80;102090.84;5006831;28;20387;-76
2022/05/03 10:43:14;;;;;;;4.72;1.10;;;;;;;19.65;46.20;102106.19;5005446;28;20045;-76
2022/05/03 10:45:57;;;;;;;4.05;1.17;;;;;;;19.91;45.71;102102.31;5005124;28;20054;-76
2022/05/03 10:48:28;;;;;;;2.33;1.13;;;;;;;19.01;46.03;102084.19;5003321;28;20033;-76
2022/05/03 10:50:58;;;;;;;;;;;;;;;19.08;45.81;102102.03;5006486;28;20265;-76
2022/05/03 10:53:29;;;;;;;4.68;1.00;;;;;;;18.88;46.42;102101.66;5006649;28;20339;-75
2022/05/03 10:56:01;;;;;;;5.13;0.90;;;;;;;18.97;45.53;102105.13;5013206;28;20025;-76
2022/05/03 10:58:28;;;;;;;5.57;1.52;;;;;;;19.12;46.63;102070.44;5006146;28;20386;-75
2022/05/03 11:01:09;;;;;;;4.78;1.08;;;;;;;19.56;45.91;102093.88;5003500;28;20044;-77
2022/05/03 11:03:39;;;;;;;2.57;0.83;;;;;;;19.64;44.19;102099.19;5001808;28;20227;-77
2022/05/03 11:06:21;;;;;;;4.95;1.23;;;;;;;19.71;45.71;102099.31;5001866;28;20025;-77
2022/05/03 11:11:39;;;;;;;5.80;1.50;;;;;;;19.49;45.30;102090.25;5004839;28;20088;-75
2022/05/03 11:14:24;;;;;;;5.85;1.38;;;;;;;19.50;45.55;102091.91;5004442;28;20017;-76
2022/05/03 11:17:12;;;;;;;4.70;1.20;;;;;;;19.44;44.55;102089.94;5003411;28;20041;-76
2022/05/03 11:19:39;;;;;;;3.22;1.17;;;;;;;19.40;45.72;102093.97;5006617;28;20029;-77
2022/05/03 11:22:10;;;;;;;5.68;1.00;;;;;;;19.64;43.65;102091.13;5004791;28;20029;-77
2022/05/03 11:24:40;;;;;;;8.95;1.20;;;;;;;19.54;45.11;102087.88;5018353;28;20026;-76
2022/05/03 11:27:08;;;;;;;6.68;1.20;;;;;;;19.82;44.78;102093.53;5017949;28;20108;-76
2022/05/03 11:29:42;;;;;;;6.55;1.40;;;;;;;19.97;44.27;102093.56;5005433;28;20333;-77
2022/05/03 11:32:08;;;;;;;6.80;1.45;;;;;;;20.22;44.39;102077.22;5004988;28;20029;-77
2022/05/03 11:34:35;;;;;;;5.93;1.38;;;;;;;20.43;43.80;102085.38;5007074;28;20407;-77
2022/05/03 11:37:02;;;;;;;9.30;1.92;;;;;;;19.59;44.58;102081.97;5005391;28;20289;-77
2022/05/03 11:39:28;;;;;;;5.72;1.17;;;;;;;19.77;45.74;102089.72;5013461;28;20034;-76
2022/05/03 11:41:53;;;;;;;3.97;1.30;;;;;;;19.79;44.54;102071.63;5005283;28;20067;-76
2022/05/03 11:44:20;;;;;;;6.65;1.30;;;;;;;20.07;44.85;102075.34;5006566;28;20065;-76
2022/05/03 11:46:48;;;;;;;4.00;1.15;;;;;;;19.82;46.40;102076.63;5004701;28;20050;-76
2022/05/03 11:49:15;;;;;;;3.80;1.23;;;;;;;20.02;44.66;102076.94;5004619;28;20132;-76
2022/05/03 11:57:24;;;;;;;6.20;1.42;;;;;;;20.22;44.89;102072.69;5006566;28;20099;-76
2022/05/03 11:59:51;;;;;;;4.18;1.25;;;;;;;20.23;43.41;102082.41;5003939;28;20025;-76
2022/05/03 12:02:22;;;;;;;7.32;1.30;;;;;;;20.22;44.10;102063.81;5008284;28;20120;-76
2022/05/03 12:05:12;;;;;;;5.53;1.30;;;;;;;20.25;43.85;102080.38;5008019;28;20040;-76
2022/05/03 12:07:37;;;;;;;6.47;1.63;;;;;;;20.31;45.53;102076.13;5006309;28;20025;-76
2022/05/03 12:10:30;;;;;;;7.45;1.40;;;;;;;20.90;43.71;102076.06;5010333;28;20041;-78
2022/05/03 12:13:12;;;;;;;7.68;1.65;;;;;;;20.00;43.84;102070.94;5019109;28;20488;-78
2022/05/03 12:15:40;;;;;;;7.63;1.70;;;;;;;19.21;46.16;102064.00;5023944;28;20022;-78
2022/05/03 12:18:18;;;;;;;3.45;1.40;;;;;;;19.53;45.87;102078.16;5000757;28;20506;-78